Time;durP1;ratioP1;P1;durP2;ratioP2;P2;SDS_P1;SDS_P2;PMS_P1;PMS_P2;Temp;Humidity;BMP_temperature;BMP_pressure;BME280_temperature;BME280_humidity;BME280_pressure;Samples;Min_cycle;Max_cycle;Signal;HPM_P1;HPM_P2
2024/02/04 00:00:14;;;;;;;11.55;8.13;;;;;;;;;;5051624;28;20055;-88
2024/02/04 00:02:46;;;;;;;10.57;7.75;;;;;;;;;;5070362;28;20028;-88
2024/02/04 00:05:12;;;;;;;11.48;7.30;;;;;;;;;;5062385;28;20024;-88
2024/02/04 00:07:37;;;;;;;10.85;7.05;;;;;;;;;;5053870;28;20080;-88
2024/02/04 00:10:03;;;;;;;10.52;7.35;;;;;;;;;;5071909;28;20035;-89
2024/02/04 00:12:28;;;;;;;10.68;7.43;;;;;;;;;;5056229;28;20040;-88
2024/02/04 00:14:54;;;;;;;9.98;7.15;;;;;;;;;;5059142;28;20531;-90
2024/02/04 00:17:20;;;;;;;10.32;7.13;;;;;;;;;;5055558;28;20044;-91
2024/02/04 00:19:45;;;;;;;10.77;7.40;;;;;;;;;;5068469;28;20470;-92
2024/02/04 00:22:11;;;;;;;11.77;7.72;;;;;;;;;;5067077;28;20111;-92
2024/02/04 00:24:36;;;;;;;9.32;7.25;;;;;;;;;;5060022;28;20485;-90
2024/02/04 00:27:02;;;;;;;11.73;7.53;;;;;;;;;;5051463;28;20501;-92
2024/02/04 00:29:28;;;;;;;10.52;7.28;;;;;;;;;;5051229;28;20042;-91
2024/02/04 00:31:53;;;;;;;12.48;8.40;;;;;;;;;;5056418;28;20393;-92
2024/02/04 00:34:23;;;;;;;11.43;8.18;;;;;;;;;;5058614;28;20081;-91
2024/02/04 00:36:48;;;;;;;11.32;7.75;;;;;;;;;;5054813;28;20477;-92
2024/02/04 00:39:14;;;;;;;14.93;8.65;;;;;;;;;;5055568;28;20028;-93
2024/02/04 00:41:39;;;;;;;17.02;9.90;;;;;;;;;;5049883;28;20056;-87
2024/02/04 00:44:05;;;;;;;16.63;10.20;;;;;;;;;;5051872;28;20094;-87
2024/02/04 00:46:30;;;;;;;17.75;9.60;;;;;;;;;;5054538;28;20032;-88
2024/02/04 00:48:56;;;;;;;20.05;9.68;;;;;;;;;;5072545;28;20085;-88
2024/02/04 00:51:22;;;;;;;25.60;10.13;;;;;;;;;;5071491;28;20029;-88
2024/02/04 00:53:47;;;;;;;19.92;8.80;;;;;;;;;;5064487;28;20469;-87
2024/02/04 00:56:12;;;;;;;26.23;9.32;;;;;;;;;;5057743;28;20119;-87
2024/02/04 00:58:38;;;;;;;29.83;10.75;;;;;;;;;;5063197;28;20094;-87
2024/02/04 01:01:04;;;;;;;20.55;10.05;;;;;;;;;;5057240;28;20036;-88
2024/02/04 01:03:37;;;;;;;26.23;9.18;;;;;;;;;;5055497;28;20089;-86
2024/02/04 01:06:03;;;;;;;22.15;10.15;;;;;;;;;;5060577;28;20055;-90
2024/02/04 01:08:28;;;;;;;26.45;10.10;;;;;;;;;;5067824;28;20068;-91
2024/02/04 01:10:54;;;;;;;22.02;10.00;;;;;;;;;;5054402;28;20126;-91
2024/02/04 01:13:19;;;;;;;26.77;10.30;;;;;;;;;;5067866;28;20508;-91
2024/02/04 01:15:45;;;;;;;22.92;9.95;;;;;;;;;;5052464;28;20435;-89
2024/02/04 01:18:10;;;;;;;26.33;10.75;;;;;;;;;;5053899;28;20032;-88
2024/02/04 01:20:35;;;;;;;26.50;9.88;;;;;;;;;;5054429;28;20048;-89
2024/02/04 01:23:01;;;;;;;24.48;10.27;;;;;;;;;;5059107;28;20025;-89
2024/02/04 01:25:27;;;;;;;30.15;11.50;;;;;;;;;;5056517;28;20052;-91
2024/02/04 01:27:52;;;;;;;20.85;10.75;;;;;;;;;;5056152;28;20050;-92
2024/02/04 01:30:17;;;;;;;21.65;10.77;;;;;;;;;;5072296;28;20106;-91
2024/02/04 01:32:43;;;;;;;24.35;10.40;;;;;;;;;;5072467;28;20031;-91
2024/02/04 01:35:09;;;;;;;27.92;11.00;;;;;;;;;;5054925;28;20055;-92
2024/02/04 01:37:34;;;;;;;28.60;11.38;;;;;;;;;;5048379;28;20021;-90
2024/02/04 01:39:59;;;;;;;29.92;11.63;;;;;;;;;;5077456;28;20064;-93
2024/02/04 01:42:25;;;;;;;32.28;11.98;;;;;;;;;;5076641;28;20111;-92
2024/02/04 01:44:51;;;;;;;25.48;10.73;;;;;;;;;;5067330;28;20390;-89
2024/02/04 01:47:16;;;;;;;24.85;11.45;;;;;;;;;;5053442;28;20025;-88
2024/02/04 01:49:43;;;;;;;29.75;11.50;;;;;;;;;;5051393;28;20040;-93
2024/02/04 01:52:11;;;;;;;26.10;11.45;;;;;;;;;;5062057;28;20116;-93
2024/02/04 01:54:39;;;;;;;24.92;10.98;;;;;;;;;;5068592;28;20194;-92
2024/02/04 01:57:06;;;;;;;28.17;10.63;;;;;;;;;;5051516;28;20115;-92
2024/02/04 01:59:32;;;;;;;25.08;10.15;;;;;;;;;;5056178;28;20047;-90
2024/02/04 02:02:00;;;;;;;28.13;11.00;;;;;;;;;;5082590;22;20670;-79
2024/02/04 02:04:26;;;;;;;23.92;10.30;;;;;;;;;;5050742;28;20303;-79
2024/02/04 02:06:55;;;;;;;26.80;10.05;;;;;;;;;;5076899;28;20546;-79
2024/02/04 02:09:20;;;;;;;24.55;9.43;;;;;;;;;;5079606;28;20033;-79
2024/02/04 02:12:10;;;;;;;26.48;9.65;;;;;;;;;;5061336;28;20081;-79
2024/02/04 02:14:39;;;;;;;25.42;9.80;;;;;;;;;;5074102;28;20056;-79
2024/02/04 02:17:17;;;;;;;23.85;9.63;;;;;;;;;;5062053;28;20504;-79
2024/02/04 02:19:59;;;;;;;24.05;9.18;;;;;;;;;;5068305;28;20048;-79
2024/02/04 02:22:46;;;;;;;22.95;9.60;;;;;;;;;;5060807;28;20048;-79
2024/02/04 02:25:13;;;;;;;27.98;10.20;;;;;;;;;;5083850;28;20036;-79
2024/02/04 02:27:49;;;;;;;22.88;9.07;;;;;;;;;;5073585;28;20031;-79
2024/02/04 02:30:16;;;;;;;27.20;8.95;;;;;;;;;;5074941;28;20036;-79
2024/02/04 02:32:42;;;;;;;21.50;8.48;;;;;;;;;;5083689;28;20024;-79
2024/02/04 02:35:08;;;;;;;23.73;8.68;;;;;;;;;;5072164;28;20115;-79
2024/02/04 02:37:40;;;;;;;23.52;8.93;;;;;;;;;;5086674;28;20115;-79
2024/02/04 02:40:40;;;;;;;19.47;9.43;;;;;;;;;;5068619;28;20028;-80
2024/02/04 02:43:06;;;;;;;22.25;10.05;;;;;;;;;;5059923;28;20285;-79
2024/02/04 02:45:32;;;;;;;26.02;9.75;;;;;;;;;;5071214;28;20475;-79
2024/02/04 02:47:58;;;;;;;23.88;9.60;;;;;;;;;;5074438;28;20052;-80
2024/02/04 02:50:23;;;;;;;22.80;9.52;;;;;;;;;;5068866;28;20028;-79
2024/02/04 02:52:50;;;;;;;19.17;9.63;;;;;;;;;;5071065;28;20368;-81
2024/02/04 02:55:16;;;;;;;22.70;9.85;;;;;;;;;;5072441;28;20480;-78
2024/02/04 02:57:41;;;;;;;26.13;9.73;;;;;;;;;;5072417;28;20034;-79
2024/02/04 03:00:07;;;;;;;21.20;9.70;;;;;;;;;;5073912;28;20031;-80
2024/02/04 03:02:33;;;;;;;22.30;10.38;;;;;;;;;;5063732;28;20040;-80
2024/02/04 03:04:59;;;;;;;21.92;9.90;;;;;;;;;;5065505;28;20506;-80
2024/02/04 03:07:24;;;;;;;18.02;9.43;;;;;;;;;;5064375;28;20388;-80
2024/02/04 03:09:49;;;;;;;24.73;9.15;;;;;;;;;;5069053;28;20078;-80
2024/02/04 03:12:15;;;;;;;23.75;9.27;;;;;;;;;;5069144;28;20114;-80
2024/02/04 03:14:40;;;;;;;25.35;9.00;;;;;;;;;;5072955;28;20054;-80
2024/02/04 03:17:05;;;;;;;20.10;8.20;;;;;;;;;;5084056;28;20514;-80
2024/02/04 03:19:31;;;;;;;20.27;8.13;;;;;;;;;;5043680;28;20496;-80
2024/02/04 03:21:56;;;;;;;19.17;7.32;;;;;;;;;;5084450;28;20115;-80
2024/02/04 03:24:21;;;;;;;19.55;7.15;;;;;;;;;;5066655;28;20115;-80
2024/02/04 03:26:47;;;;;;;23.08;7.43;;;;;;;;;;5067221;28;20032;-80
2024/02/04 03:29:12;;;;;;;20.35;7.40;;;;;;;;;;5063355;28;20031;-80
2024/02/04 03:31:37;;;;;;;24.67;7.95;;;;;;;;;;5060373;28;20032;-80
2024/02/04 03:34:03;;;;;;;17.80;7.75;;;;;;;;;;5058373;28;20442;-80
2024/02/04 03:36:28;;;;;;;19.08;8.23;;;;;;;;;;5063437;28;20032;-80
2024/02/04 03:38:54;;;;;;;22.23;7.43;;;;;;;;;;5064385;28;20024;-80
2024/02/04 03:41:19;;;;;;;20.95;8.18;;;;;;;;;;5057716;28;20021;-80
2024/02/04 03:43:45;;;;;;;20.55;7.95;;;;;;;;;;5068521;28;20089;-81
2024/02/04 03:46:14;;;;;;;29.13;8.40;;;;;;;;;;5066414;28;20020;-80
2024/02/04 03:48:40;;;;;;;17.67;8.60;;;;;;;;;;5083386;28;20032;-80
2024/02/04 03:51:05;;;;;;;20.92;7.88;;;;;;;;;;5066425;28;20512;-80
2024/02/04 03:53:30;;;;;;;21.50;8.23;;;;;;;;;;5065704;28;20172;-80
2024/02/04 03:55:56;;;;;;;17.25;8.32;;;;;;;;;;5064210;28;20060;-80
2024/02/04 03:58:29;;;;;;;21.80;9.35;;;;;;;;;;5064995;28;20109;-80
2024/02/04 04:00:54;;;;;;;;;;;;;;;;;;5065919;28;20025;-80
2024/02/04 04:03:20;;;;;;;18.85;7.85;;;;;;;;;;5065792;28;19966;-80
2024/02/04 04:05:45;;;;;;;19.17;7.90;;;;;;;;;;5068081;28;20028;-80
2024/02/04 04:08:10;;;;;;;18.17;7.43;;;;;;;;;;5067540;28;20040;-80
2024/02/04 04:10:35;;;;;;;20.95;6.85;;;;;;;;;;5068057;28;20384;-80
2024/02/04 04:13:01;;;;;;;18.60;7.03;;;;;;;;;;5081164;28;20566;-80
2024/02/04 04:15:26;;;;;;;16.83;7.47;;;;;;;;;;5068950;28;20607;-80
2024/02/04 04:17:51;;;;;;;19.02;7.15;;;;;;;;;;5051176;28;20036;-80
2024/02/04 04:20:17;;;;;;;15.82;7.35;;;;;;;;;;5075215;28;20388;-80
2024/02/04 04:22:42;;;;;;;15.70;6.85;;;;;;;;;;5065588;28;20108;-80
2024/02/04 04:25:09;;;;;;;18.25;7.28;;;;;;;;;;5065224;28;20036;-80
2024/02/04 04:27:34;;;;;;;20.10;7.30;;;;;;;;;;5067707;28;20061;-80
2024/02/04 04:30:00;;;;;;;20.27;8.38;;;;;;;;;;5066245;28;20507;-80
2024/02/04 04:32:25;;;;;;;18.08;7.93;;;;;;;;;;5067979;28;21865;-81
2024/02/04 04:34:50;;;;;;;18.63;7.78;;;;;;;;;;5082337;28;20033;-80
2024/02/04 04:37:16;;;;;;;19.13;7.72;;;;;;;;;;5069758;28;20032;-80
2024/02/04 04:39:41;;;;;;;16.70;7.38;;;;;;;;;;5066720;28;20103;-81
2024/02/04 04:42:06;;;;;;;19.73;7.95;;;;;;;;;;5063851;28;20094;-80
2024/02/04 04:44:32;;;;;;;18.40;7.70;;;;;;;;;;5065318;28;20369;-80
2024/02/04 04:46:57;;;;;;;15.98;7.63;;;;;;;;;;5066956;28;20016;-80
2024/02/04 04:49:23;;;;;;;18.63;7.90;;;;;;;;;;5066696;28;20081;-81
2024/02/04 04:51:48;;;;;;;21.80;7.88;;;;;;;;;;5065790;28;20043;-80
2024/02/04 04:54:13;;;;;;;17.83;7.30;;;;;;;;;;5063025;28;20020;-81
2024/02/04 04:56:40;;;;;;;17.45;8.13;;;;;;;;;;5065864;28;20025;-80
2024/02/04 04:59:06;;;;;;;15.32;7.78;;;;;;;;;;5065991;28;20115;-80
2024/02/04 05:01:32;;;;;;;18.27;8.23;;;;;;;;;;5065108;28;20040;-80
2024/02/04 05:03:57;;;;;;;17.15;8.40;;;;;;;;;;5065745;28;20086;-80
2024/02/04 05:06:23;;;;;;;19.33;8.38;;;;;;;;;;5061682;28;20499;-80
2024/02/04 05:08:48;;;;;;;17.20;9.15;;;;;;;;;;5064874;28;20059;-80
2024/02/04 05:11:13;;;;;;;21.05;8.45;;;;;;;;;;5066952;28;20085;-80
2024/02/04 05:13:39;;;;;;;17.23;8.15;;;;;;;;;;5066176;28;20483;-80
2024/02/04 05:16:05;;;;;;;18.13;7.97;;;;;;;;;;5068458;28;20029;-80
2024/02/04 05:18:31;;;;;;;19.33;8.20;;;;;;;;;;5081969;28;20045;-80
2024/02/04 05:20:56;;;;;;;20.00;8.93;;;;;;;;;;5072432;28;20029;-80
2024/02/04 05:23:22;;;;;;;17.90;7.68;;;;;;;;;;5065821;28;20035;-80
2024/02/04 05:25:47;;;;;;;16.80;8.13;;;;;;;;;;5073421;28;20025;-80
2024/02/04 05:28:13;;;;;;;15.13;7.57;;;;;;;;;;5068264;28;20557;-80
2024/02/04 05:30:38;;;;;;;21.38;8.80;;;;;;;;;;5081564;28;20077;-80
2024/02/04 05:33:04;;;;;;;17.25;8.32;;;;;;;;;;5066203;28;20494;-80
2024/02/04 05:35:29;;;;;;;18.58;7.88;;;;;;;;;;5061349;28;20021;-80
2024/02/04 05:37:55;;;;;;;21.73;7.70;;;;;;;;;;5080971;28;20089;-81
2024/02/04 05:40:20;;;;;;;15.68;7.13;;;;;;;;;;5063009;28;20024;-79
2024/02/04 05:42:46;;;;;;;17.75;7.72;;;;;;;;;;5076556;28;20028;-81
2024/02/04 05:45:12;;;;;;;14.82;7.80;;;;;;;;;;5064226;28;20021;-80
2024/02/04 05:47:37;;;;;;;21.88;7.55;;;;;;;;;;5054461;28;20040;-81
2024/02/04 05:50:03;;;;;;;18.80;7.30;;;;;;;;;;5061894;28;20021;-81
2024/02/04 05:52:28;;;;;;;18.13;7.55;;;;;;;;;;5063255;28;20085;-80
2024/02/04 05:54:53;;;;;;;16.35;7.50;;;;;;;;;;5065125;28;20032;-81
2024/02/04 05:57:20;;;;;;;14.95;7.28;;;;;;;;;;5063814;28;20024;-80
2024/02/04 05:59:48;;;;;;;15.38;7.25;;;;;;;;;;5042236;28;20033;-80
2024/02/04 06:02:14;;;;;;;15.48;7.55;;;;;;;;;;5061291;28;20119;-81
2024/02/04 06:04:40;;;;;;;17.80;7.32;;;;;;;;;;5064708;28;20169;-80
2024/02/04 06:07:05;;;;;;;23.45;7.78;;;;;;;;;;5065416;28;20056;-80
2024/02/04 06:09:32;;;;;;;16.25;8.15;;;;;;;;;;5063315;28;20099;-80
2024/02/04 06:11:57;;;;;;;12.50;7.05;;;;;;;;;;5062948;28;20476;-81
2024/02/04 06:14:23;;;;;;;17.38;8.68;;;;;;;;;;5064209;28;20069;-80
2024/02/04 06:16:48;;;;;;;18.75;7.70;;;;;;;;;;5062595;28;20028;-80
2024/02/04 06:19:14;;;;;;;17.48;7.95;;;;;;;;;;5081334;28;20020;-80
2024/02/04 06:21:40;;;;;;;17.60;7.95;;;;;;;;;;5064521;28;20108;-80
2024/02/04 06:24:05;;;;;;;15.88;7.80;;;;;;;;;;5063899;28;20119;-80
2024/02/04 06:26:31;;;;;;;15.68;7.38;;;;;;;;;;5078372;28;20032;-80
2024/02/04 06:28:56;;;;;;;14.80;7.38;;;;;;;;;;5065626;28;20186;-80
2024/02/04 06:31:22;;;;;;;16.00;6.88;;;;;;;;;;5062772;28;20093;-80
2024/02/04 06:33:47;;;;;;;10.82;6.68;;;;;;;;;;5064224;28;20028;-80
2024/02/04 06:36:12;;;;;;;14.82;7.35;;;;;;;;;;5062439;28;20096;-80
2024/02/04 06:38:38;;;;;;;15.43;6.80;;;;;;;;;;5079208;28;20028;-80
2024/02/04 06:41:03;;;;;;;16.27;7.38;;;;;;;;;;5063184;28;20504;-80
2024/02/04 06:43:29;;;;;;;13.88;6.80;;;;;;;;;;5061595;28;20040;-81
2024/02/04 06:45:54;;;;;;;11.38;6.85;;;;;;;;;;5064804;28;20032;-80
2024/02/04 06:48:20;;;;;;;13.43;6.95;;;;;;;;;;5077943;28;20024;-80
2024/02/04 06:50:47;;;;;;;13.30;6.47;;;;;;;;;;5059963;28;20523;-80
2024/02/04 06:53:15;;;;;;;11.38;6.70;;;;;;;;;;5064227;28;20031;-80
2024/02/04 06:55:41;;;;;;;17.10;7.45;;;;;;;;;;5078748;28;20404;-80
2024/02/04 06:58:06;;;;;;;14.70;6.97;;;;;;;;;;5062721;28;20031;-80
2024/02/04 07:00:31;;;;;;;10.27;6.45;;;;;;;;;;5079533;28;20056;-80
2024/02/04 07:02:57;;;;;;;13.15;7.03;;;;;;;;;;5061493;28;20407;-80
2024/02/04 07:05:22;;;;;;;15.25;7.57;;;;;;;;;;5062575;28;20029;-80
2024/02/04 07:07:49;;;;;;;13.90;6.40;;;;;;;;;;5062162;28;20036;-80
2024/02/04 07:10:16;;;;;;;12.32;6.70;;;;;;;;;;5063473;28;20024;-80
2024/02/04 07:12:42;;;;;;;13.30;7.00;;;;;;;;;;5061688;28;20020;-80
2024/02/04 07:15:08;;;;;;;14.80;7.22;;;;;;;;;;5058360;28;20025;-80
2024/02/04 07:17:34;;;;;;;14.30;6.40;;;;;;;;;;5061651;28;20450;-80
2024/02/04 07:19:59;;;;;;;12.98;6.13;;;;;;;;;;5065809;28;20043;-80
2024/02/04 07:22:24;;;;;;;14.55;6.05;;;;;;;;;;5065474;28;20013;-80
2024/02/04 07:24:50;;;;;;;13.05;5.75;;;;;;;;;;5068794;28;20081;-79
2024/02/04 07:27:15;;;;;;;14.05;6.35;;;;;;;;;;5077535;28;20423;-80
2024/02/04 07:29:40;;;;;;;11.32;5.68;;;;;;;;;;5063223;28;20031;-80
2024/02/04 07:32:06;;;;;;;14.07;6.05;;;;;;;;;;5062419;28;20025;-80
2024/02/04 07:34:31;;;;;;;11.88;5.85;;;;;;;;;;5060492;28;20036;-79
2024/02/04 07:36:57;;;;;;;12.65;6.07;;;;;;;;;;5079139;28;20024;-80
2024/02/04 07:39:22;;;;;;;13.45;5.80;;;;;;;;;;5062961;28;20090;-79
2024/02/04 07:41:47;;;;;;;8.77;5.18;;;;;;;;;;5062623;28;20472;-79
2024/02/04 07:44:13;;;;;;;9.20;5.20;;;;;;;;;;5077908;28;20472;-79
2024/02/04 07:46:38;;;;;;;12.70;5.90;;;;;;;;;;5063751;28;20415;-80
2024/02/04 07:49:03;;;;;;;10.05;5.93;;;;;;;;;;5059441;28;20085;-80
2024/02/04 07:51:29;;;;;;;11.07;6.40;;;;;;;;;;5069431;28;20059;-80
2024/02/04 07:53:54;;;;;;;13.98;6.22;;;;;;;;;;5065466;28;20043;-80
2024/02/04 07:56:20;;;;;;;14.50;6.22;;;;;;;;;;5058860;28;20036;-80
2024/02/04 07:58:45;;;;;;;13.73;5.75;;;;;;;;;;5067831;28;20020;-80
2024/02/04 08:01:10;;;;;;;12.70;5.28;;;;;;;;;;5061320;28;20467;-80
2024/02/04 08:03:36;;;;;;;9.63;5.53;;;;;;;;;;5077655;28;20031;-80
2024/02/04 08:06:02;;;;;;;10.07;5.32;;;;;;;;;;5066330;28;20020;-80
2024/02/04 08:08:28;;;;;;;9.60;5.03;;;;;;;;;;5068851;28;20035;-80
2024/02/04 08:10:53;;;;;;;12.32;5.65;;;;;;;;;;5066675;28;20500;-80
2024/02/04 08:13:19;;;;;;;9.93;5.50;;;;;;;;;;5085842;28;20089;-80
2024/02/04 08:15:44;;;;;;;9.68;4.93;;;;;;;;;;5061954;28;20388;-80
2024/02/04 08:18:09;;;;;;;11.60;5.78;;;;;;;;;;5064002;28;20024;-80
2024/02/04 08:20:35;;;;;;;14.07;5.85;;;;;;;;;;5081412;28;20040;-80
2024/02/04 08:23:00;;;;;;;11.93;5.60;;;;;;;;;;5068063;28;20451;-80
2024/02/04 08:25:26;;;;;;;12.50;5.93;;;;;;;;;;5068904;28;20033;-80
2024/02/04 08:27:51;;;;;;;12.07;6.07;;;;;;;;;;5065766;28;20028;-80
2024/02/04 08:30:18;;;;;;;14.00;5.53;;;;;;;;;;5069740;28;20028;-80
2024/02/04 08:32:45;;;;;;;10.00;5.40;;;;;;;;;;5081982;28;20024;-80
2024/02/04 08:35:10;;;;;;;11.48;6.03;;;;;;;;;;5068029;28;20021;-80
2024/02/04 08:37:37;;;;;;;12.73;5.78;;;;;;;;;;5064799;28;20031;-80
2024/02/04 08:40:04;;;;;;;9.35;4.82;;;;;;;;;;5066777;28;20063;-80
2024/02/04 08:42:29;;;;;;;11.35;5.47;;;;;;;;;;5072047;28;20031;-80
2024/02/04 08:44:54;;;;;;;10.43;4.57;;;;;;;;;;5065475;28;20115;-80
2024/02/04 08:47:20;;;;;;;11.00;5.10;;;;;;;;;;5069094;28;20395;-80
2024/02/04 08:49:45;;;;;;;11.50;3.90;;;;;;;;;;5066839;28;20066;-80
2024/02/04 08:52:11;;;;;;;10.73;4.57;;;;;;;;;;5058548;28;20111;-80
2024/02/04 08:54:36;;;;;;;7.65;4.45;;;;;;;;;;5069532;28;20048;-80
2024/02/04 08:57:01;;;;;;;8.18;3.42;;;;;;;;;;5079237;28;20165;-80
2024/02/04 08:59:27;;;;;;;6.93;3.40;;;;;;;;;;5068804;28;20040;-80
2024/02/04 09:01:52;;;;;;;6.32;3.10;;;;;;;;;;5061818;28;20029;-80
2024/02/04 09:04:18;;;;;;;8.00;3.50;;;;;;;;;;5068980;28;20028;-80
2024/02/04 09:06:43;;;;;;;6.75;3.33;;;;;;;;;;5060401;28;20502;-80
2024/02/04 09:09:09;;;;;;;5.93;3.10;;;;;;;;;;5080536;28;20032;-80
2024/02/04 09:11:34;;;;;;;6.85;3.03;;;;;;;;;;5073600;28;20131;-80
2024/02/04 09:14:00;;;;;;;10.02;3.20;;;;;;;;;;5062788;28;20477;-80
2024/02/04 09:16:25;;;;;;;7.45;3.13;;;;;;;;;;5067476;28;20103;-80
2024/02/04 09:18:51;;;;;;;7.45;2.95;;;;;;;;;;5055769;28;20074;-80
2024/02/04 09:21:16;;;;;;;6.93;3.30;;;;;;;;;;5064926;28;20035;-80
2024/02/04 09:23:41;;;;;;;5.53;2.67;;;;;;;;;;5068736;28;20032;-80
2024/02/04 09:26:07;;;;;;;6.38;2.97;;;;;;;;;;5078177;28;20448;-80
2024/02/04 09:28:32;;;;;;;6.07;2.70;;;;;;;;;;5069548;28;20436;-80
2024/02/04 09:30:58;;;;;;;5.45;2.70;;;;;;;;;;5081089;28;20029;-80
2024/02/04 09:33:23;;;;;;;7.45;2.72;;;;;;;;;;5072053;28;20035;-80
2024/02/04 09:35:49;;;;;;;6.63;2.45;;;;;;;;;;5061597;28;20412;-80
2024/02/04 09:38:15;;;;;;;5.70;2.42;;;;;;;;;;5063833;28;20107;-80
2024/02/04 09:40:41;;;;;;;7.60;3.00;;;;;;;;;;5080439;28;20025;-80
2024/02/04 09:43:06;;;;;;;6.10;2.55;;;;;;;;;;5066771;28;20024;-80
2024/02/04 09:45:33;;;;;;;6.63;2.63;;;;;;;;;;5059541;28;20064;-80
2024/02/04 09:48:00;;;;;;;7.80;2.97;;;;;;;;;;5057691;28;20469;-80
2024/02/04 09:50:26;;;;;;;7.20;2.70;;;;;;;;;;5061306;28;20024;-80
2024/02/04 09:52:57;;;;;;;8.25;2.97;;;;;;;;;;5058352;28;20031;-80
2024/02/04 09:55:25;;;;;;;7.85;2.90;;;;;;;;;;5056847;28;20495;-81
2024/02/04 09:57:51;;;;;;;5.72;2.80;;;;;;;;;;5069935;28;20545;-81
2024/02/04 10:00:20;;;;;;;5.65;2.60;;;;;;;;;;5072446;28;20040;-81
2024/02/04 10:02:47;;;;;;;4.93;2.70;;;;;;;;;;5059397;28;20033;-79
2024/02/04 10:05:13;;;;;;;5.18;2.65;;;;;;;;;;5066486;28;20082;-81
2024/02/04 10:07:38;;;;;;;6.45;2.60;;;;;;;;;;5054111;28;20545;-80
2024/02/04 10:10:06;;;;;;;6.70;2.60;;;;;;;;;;5058949;28;20064;-80
2024/02/04 10:12:31;;;;;;;8.63;2.60;;;;;;;;;;5053804;28;20177;-80
2024/02/04 10:14:56;;;;;;;6.57;2.17;;;;;;;;;;5049933;28;20478;-80
2024/02/04 10:17:23;;;;;;;8.07;2.28;;;;;;;;;;5059993;28;20025;-81
2024/02/04 10:19:49;;;;;;;5.55;2.47;;;;;;;;;;5071273;28;20034;-80
2024/02/04 10:22:16;;;;;;;4.85;1.77;;;;;;;;;;5049967;28;20811;-80
2024/02/04 10:24:42;;;;;;;3.60;1.33;;;;;;;;;;5053713;28;20511;-80
2024/02/04 10:27:10;;;;;;;2.72;1.10;;;;;;;;;;5039262;28;20029;-81
2024/02/04 10:29:36;;;;;;;4.03;1.23;;;;;;;;;;5055542;28;20450;-80
2024/02/04 10:32:01;;;;;;;2.47;1.15;;;;;;;;;;5053853;28;20036;-80
2024/02/04 10:34:27;;;;;;;4.45;1.45;;;;;;;;;;5069005;28;20032;-80
2024/02/04 10:36:53;;;;;;;3.67;1.50;;;;;;;;;;5053327;28;20035;-80
2024/02/04 10:39:19;;;;;;;4.20;2.03;;;;;;;;;;5034321;28;20370;-80
2024/02/04 10:41:53;;;;;;;4.43;2.30;;;;;;;;;;5064448;28;20063;-79
2024/02/04 10:44:22;;;;;;;6.00;2.55;;;;;;;;;;5048432;28;20087;-80
2024/02/04 10:46:49;;;;;;;5.25;2.40;;;;;;;;;;5042474;28;20471;-80
2024/02/04 10:49:15;;;;;;;4.88;2.55;;;;;;;;;;5051457;28;20467;-80
2024/02/04 10:51:42;;;;;;;7.03;2.58;;;;;;;;;;5050841;28;20035;-80
2024/02/04 10:54:08;;;;;;;4.63;2.70;;;;;;;;;;5065937;28;20024;-80
2024/02/04 10:56:46;;;;;;;5.15;2.67;;;;;;;;;;5047084;28;20110;-80
2024/02/04 10:59:17;;;;;;;5.28;2.88;;;;;;;;;;5033666;28;20032;-80
2024/02/04 11:01:43;;;;;;;6.43;2.92;;;;;;;;;;5051011;28;20029;-80
2024/02/04 11:04:11;;;;;;;7.57;3.85;;;;;;;;;;5057350;28;20039;-80
2024/02/04 11:06:40;;;;;;;6.03;3.58;;;;;;;;;;5051547;28;20494;-80
2024/02/04 11:09:09;;;;;;;7.60;3.80;;;;;;;;;;5060855;28;20028;-80
2024/02/04 11:11:36;;;;;;;5.47;3.67;;;;;;;;;;5041906;28;20027;-80
2024/02/04 11:14:09;;;;;;;6.47;3.80;;;;;;;;;;5051307;28;20758;-79
2024/02/04 11:16:38;;;;;;;6.63;3.67;;;;;;;;;;5045219;28;20123;-79
2024/02/04 11:19:22;;;;;;;6.63;3.45;;;;;;;;;;5043356;28;20365;-79
2024/02/04 11:22:20;;;;;;;11.00;4.20;;;;;;;;;;5049461;28;20477;-79
2024/02/04 11:25:22;;;;;;;6.22;3.65;;;;;;;;;;5019842;28;20052;-79
2024/02/04 11:27:48;;;;;;;7.25;3.40;;;;;;;;;;5066351;28;20121;-80
2024/02/04 11:30:14;;;;;;;6.88;3.38;;;;;;;;;;5053644;28;20119;-79
2024/02/04 11:32:40;;;;;;;7.88;3.35;;;;;;;;;;5040660;28;20047;-79
2024/02/04 11:35:07;;;;;;;7.20;3.63;;;;;;;;;;5044749;28;20024;-79
2024/02/04 11:37:33;;;;;;;8.93;3.33;;;;;;;;;;5050510;28;20025;-79
2024/02/04 11:39:58;;;;;;;7.45;3.45;;;;;;;;;;5046834;28;20029;-80
2024/02/04 11:42:25;;;;;;;5.85;2.90;;;;;;;;;;5052704;28;20028;-79
2024/02/04 11:44:50;;;;;;;7.05;2.67;;;;;;;;;;5052347;28;20060;-79
2024/02/04 11:47:26;;;;;;;6.85;3.05;;;;;;;;;;5053133;28;20380;-79
2024/02/04 11:49:58;;;;;;;8.10;2.50;;;;;;;;;;5048491;28;20636;-79
2024/02/04 11:52:26;;;;;;;5.18;2.28;;;;;;;;;;5042384;28;20056;-79
2024/02/04 11:54:52;;;;;;;5.68;2.17;;;;;;;;;;5052661;28;20030;-79
2024/02/04 11:57:19;;;;;;;5.43;1.95;;;;;;;;;;5046657;28;20025;-79
2024/02/04 11:59:46;;;;;;;7.15;2.25;;;;;;;;;;5060392;28;20476;-79
2024/02/04 12:02:12;;;;;;;6.00;1.88;;;;;;;;;;5045162;28;20620;-79
2024/02/04 12:04:39;;;;;;;4.28;1.77;;;;;;;;;;5072628;28;20029;-80
2024/02/04 12:07:05;;;;;;;8.30;2.03;;;;;;;;;;5065924;28;20032;-79
2024/02/04 12:09:31;;;;;;;7.90;1.88;;;;;;;;;;5050252;28;20640;-79
2024/02/04 12:11:57;;;;;;;6.47;1.73;;;;;;;;;;5051702;28;20029;-79
2024/02/04 12:14:23;;;;;;;5.90;1.60;;;;;;;;;;5058506;28;20107;-78
2024/02/04 12:16:49;;;;;;;4.22;1.63;;;;;;;;;;5077587;28;20233;-78
2024/02/04 12:19:14;;;;;;;6.38;1.70;;;;;;;;;;5059262;28;20636;-79
2024/02/04 12:21:40;;;;;;;4.10;1.40;;;;;;;;;;5051668;28;20287;-79
2024/02/04 12:24:05;;;;;;;5.53;2.05;;;;;;;;;;5072487;28;20074;-79
2024/02/04 12:26:31;;;;;;;4.90;1.67;;;;;;;;;;5055568;28;20036;-79
2024/02/04 12:28:56;;;;;;;5.88;1.70;;;;;;;;;;5044019;28;20469;-80
2024/02/04 12:31:28;;;;;;;3.38;1.48;;;;;;;;;;5048288;28;20029;-79
2024/02/04 12:33:57;;;;;;;4.60;1.63;;;;;;;;;;5047699;28;20033;-79
2024/02/04 12:36:30;;;;;;;4.63;1.38;;;;;;;;;;5050179;28;20029;-78
2024/02/04 12:39:03;;;;;;;4.35;1.42;;;;;;;;;;5045431;28;20044;-80
2024/02/04 12:41:32;;;;;;;5.00;1.50;;;;;;;;;;5047404;28;20028;-80
2024/02/04 12:44:00;;;;;;;7.70;1.70;;;;;;;;;;5049624;28;20033;-80
2024/02/04 12:46:25;;;;;;;6.30;1.80;;;;;;;;;;5057423;28;20442;-80
2024/02/04 12:48:55;;;;;;;6.63;1.50;;;;;;;;;;5054949;28;20039;-80
2024/02/04 12:51:31;;;;;;;7.72;1.90;;;;;;;;;;5053961;28;20059;-79
2024/02/04 12:54:10;;;;;;;6.47;1.90;;;;;;;;;;5056973;28;20039;-79
2024/02/04 12:56:40;;;;;;;5.03;1.70;;;;;;;;;;5048219;28;20039;-80
2024/02/04 12:59:06;;;;;;;7.45;1.63;;;;;;;;;;5056552;28;20024;-80
2024/02/04 13:01:31;;;;;;;5.53;1.85;;;;;;;;;;5048455;28;20043;-78
2024/02/04 13:03:57;;;;;;;5.18;1.70;;;;;;;;;;5053646;28;20038;-79
2024/02/04 13:06:22;;;;;;;6.15;1.70;;;;;;;;;;5067219;28;20768;-80
2024/02/04 13:08:48;;;;;;;8.40;2.05;;;;;;;;;;5054305;28;20040;-79
2024/02/04 13:11:19;;;;;;;5.53;1.60;;;;;;;;;;5055074;28;20506;-79
2024/02/04 13:13:45;;;;;;;6.75;1.50;;;;;;;;;;5051994;28;20033;-80
2024/02/04 13:16:10;;;;;;;6.82;1.45;;;;;;;;;;5055471;28;20024;-79
2024/02/04 13:18:36;;;;;;;6.47;2.03;;;;;;;;;;5052296;28;20139;-80
2024/02/04 13:21:02;;;;;;;4.93;1.67;;;;;;;;;;5030591;28;20107;-79
2024/02/04 13:23:28;;;;;;;5.22;1.42;;;;;;;;;;5045218;28;20026;-79
2024/02/04 13:25:54;;;;;;;5.95;1.85;;;;;;;;;;5044558;28;20863;-79
2024/02/04 13:28:19;;;;;;;5.38;1.40;;;;;;;;;;5048249;28;20270;-79
2024/02/04 13:30:44;;;;;;;6.80;1.88;;;;;;;;;;5048161;28;20040;-79
2024/02/04 13:33:10;;;;;;;6.50;1.80;;;;;;;;;;5039429;28;20028;-78
2024/02/04 13:35:35;;;;;;;6.03;1.58;;;;;;;;;;5055046;28;20078;-79
2024/02/04 13:38:02;;;;;;;6.10;1.75;;;;;;;;;;5045446;28;20097;-79
2024/02/04 13:40:27;;;;;;;4.85;1.40;;;;;;;;;;5045186;28;20101;-79
2024/02/04 13:42:54;;;;;;;4.60;1.50;;;;;;;;;;5048665;28;20029;-79
2024/02/04 13:45:19;;;;;;;7.15;2.00;;;;;;;;;;5054222;28;20286;-79
2024/02/04 13:47:45;;;;;;;5.90;1.60;;;;;;;;;;5062800;28;20656;-79
2024/02/04 13:50:11;;;;;;;6.25;1.98;;;;;;;;;;5046820;28;20066;-79
2024/02/04 13:52:37;;;;;;;7.93;1.70;;;;;;;;;;5041044;28;20024;-80
2024/02/04 13:55:09;;;;;;;6.35;1.70;;;;;;;;;;5059465;28;20470;-80
2024/02/04 13:57:35;;;;;;;6.20;1.90;;;;;;;;;;5052577;28;20032;-79
2024/02/04 14:00:04;;;;;;;8.18;2.30;;;;;;;;;;5059771;28;20037;-79
2024/02/04 14:02:29;;;;;;;7.82;2.00;;;;;;;;;;5040621;28;20029;-80
2024/02/04 14:04:56;;;;;;;5.13;1.50;;;;;;;;;;5063856;28;20065;-79
2024/02/04 14:07:21;;;;;;;6.13;1.60;;;;;;;;;;5048603;28;20078;-79
2024/02/04 14:09:47;;;;;;;8.27;2.08;;;;;;;;;;5031677;28;20024;-79
2024/02/04 14:12:14;;;;;;;6.68;1.85;;;;;;;;;;5061817;28;20032;-79
2024/02/04 14:14:39;;;;;;;4.95;1.42;;;;;;;;;;5046021;28;20435;-79
2024/02/04 14:17:05;;;;;;;9.82;2.30;;;;;;;;;;5045212;28;20029;-80
2024/02/04 14:19:31;;;;;;;7.28;1.70;;;;;;;;;;5051115;28;23136;-80
2024/02/04 14:21:57;;;;;;;5.82;1.77;;;;;;;;;;5042418;28;20047;-80
2024/02/04 14:24:22;;;;;;;5.60;1.85;;;;;;;;;;5054499;28;20024;-80
2024/02/04 14:26:48;;;;;;;3.30;1.25;;;;;;;;;;5042348;28;20033;-80
2024/02/04 14:29:15;;;;;;;7.28;1.63;;;;;;;;;;5048025;28;20108;-80